Time;durP1;ratioP1;P1;durP2;ratioP2;P2;SDS_P1;SDS_P2;PMS_P1;PMS_P2;Temp;Humidity;BMP_temperature;BMP_pressure;BME280_temperature;BME280_humidity;BME280_pressure;Samples;Min_cycle;Max_cycle;Signal;HPM_P1;HPM_P2
2020/12/13 00:00:12;;;;;;;121.85;44.22;;;;;;;1.15;83.51;95204.91;5017301;28;20053;-53
2020/12/13 00:02:42;;;;;;;117.93;45.38;;;;;;;1.15;83.80;95201.47;5007437;28;20076;-56
2020/12/13 00:05:09;;;;;;;191.20;54.90;;;;;;;1.10;83.29;95191.75;4988664;28;20041;-53
2020/12/13 00:07:37;;;;;;;156.55;49.88;;;;;;;1.01;83.65;95204.19;4993875;28;20072;-53
2020/12/13 00:10:04;;;;;;;56.80;30.77;;;;;;;1.01;83.82;95206.00;5019520;28;20057;-58
2020/12/13 00:12:32;;;;;;;60.83;34.03;;;;;;;1.09;83.46;95203.13;5027917;28;20068;-52
2020/12/13 00:14:59;;;;;;;73.25;34.38;;;;;;;1.17;83.34;95204.66;5033402;28;20064;-58
2020/12/13 00:17:26;;;;;;;66.10;38.13;;;;;;;1.22;83.10;95210.81;5010269;28;20054;-53
2020/12/13 00:19:53;;;;;;;65.90;39.00;;;;;;;1.23;82.98;95202.00;5005890;28;20037;-53
2020/12/13 00:22:20;;;;;;;87.50;41.35;;;;;;;1.20;82.93;95199.84;5017586;28;20045;-54
2020/12/13 00:24:48;;;;;;;85.30;41.63;;;;;;;1.24;82.54;95213.19;5007972;28;20504;-55
2020/12/13 00:27:15;;;;;;;81.93;39.45;;;;;;;1.21;82.31;95211.81;5019539;28;20041;-54
2020/12/13 00:29:42;;;;;;;77.57;37.65;;;;;;;1.14;82.81;95208.50;5008879;28;20057;-54
2020/12/13 00:32:09;;;;;;;78.38;41.15;;;;;;;1.18;83.06;95214.84;5012098;28;20049;-54
2020/12/13 00:34:38;;;;;;;100.75;39.78;;;;;;;1.17;82.98;95220.25;5021805;28;20053;-54
2020/12/13 00:37:07;;;;;;;86.05;37.30;;;;;;;1.14;82.57;95224.09;5019197;28;20053;-54
2020/12/13 00:39:38;;;;;;;71.68;35.97;;;;;;;1.06;82.97;95227.75;5010678;28;20079;-53
2020/12/13 00:42:05;;;;;;;101.20;41.42;;;;;;;0.99;82.46;95221.00;5015327;28;20053;-53
2020/12/13 00:44:33;;;;;;;103.90;45.80;;;;;;;0.85;83.13;95217.72;5017339;28;20517;-54
2020/12/13 00:47:00;;;;;;;87.05;44.67;;;;;;;0.74;83.71;95222.56;5023976;28;20053;-53
2020/12/13 00:49:29;;;;;;;81.13;39.20;;;;;;;0.73;83.82;95231.38;5050313;28;20072;-56
2020/12/13 00:52:04;;;;;;;73.75;37.80;;;;;;;0.77;84.25;95235.13;5020520;28;20045;-54
2020/12/13 00:54:32;;;;;;;76.47;39.47;;;;;;;0.81;83.25;95230.31;4993724;28;20061;-53
2020/12/13 00:57:00;;;;;;;56.25;34.85;;;;;;;0.77;83.29;95234.34;5010230;28;20425;-53
2020/12/13 00:59:27;;;;;;;57.72;33.17;;;;;;;0.79;83.78;95244.50;5019847;28;20057;-55
2020/12/13 01:01:55;;;;;;;60.90;34.03;;;;;;;0.80;83.33;95249.50;5053558;28;20045;-54
2020/12/13 01:04:23;;;;;;;60.83;35.22;;;;;;;0.73;83.75;95241.78;5055269;28;20425;-57
2020/12/13 01:06:51;;;;;;;68.65;36.08;;;;;;;0.74;84.06;95245.94;5001640;28;20421;-53
2020/12/13 01:09:18;;;;;;;89.28;38.72;;;;;;;0.75;84.14;95237.13;4991616;28;20065;-54
2020/12/13 01:11:45;;;;;;;97.57;38.72;;;;;;;0.72;83.80;95241.97;5016627;28;20056;-53
2020/12/13 01:14:13;;;;;;;100.80;39.30;;;;;;;0.67;84.05;95239.22;5055734;28;20053;-52
2020/12/13 01:16:40;;;;;;;109.28;39.88;;;;;;;0.64;84.23;95239.63;5002009;28;20049;-53
2020/12/13 01:19:07;;;;;;;86.15;39.78;;;;;;;0.60;84.45;95232.25;5006684;28;20052;-54
2020/12/13 01:21:34;;;;;;;78.93;39.08;;;;;;;0.61;84.09;95241.63;5025476;28;20049;-54
2020/12/13 01:24:01;;;;;;;84.38;39.55;;;;;;;0.64;84.12;95242.22;5020395;28;20050;-53
2020/12/13 01:26:29;;;;;;;91.80;41.92;;;;;;;0.60;84.16;95247.81;5020740;28;20045;-53
2020/12/13 01:28:56;;;;;;;107.22;42.38;;;;;;;0.58;84.63;95244.63;5016381;28;20461;-53
2020/12/13 01:31:24;;;;;;;88.05;39.45;;;;;;;0.57;84.12;95242.25;5025126;28;20053;-55
2020/12/13 01:33:52;;;;;;;68.85;35.67;;;;;;;0.59;84.14;95248.03;5053570;28;20520;-54
2020/12/13 01:36:22;;;;;;;83.30;37.22;;;;;;;0.58;84.08;95254.25;5026732;28;20053;-53
2020/12/13 01:38:52;;;;;;;77.65;35.85;;;;;;;0.55;84.08;95255.47;5024401;28;20052;-54
2020/12/13 01:41:20;;;;;;;61.78;33.88;;;;;;;0.56;84.03;95249.25;5025420;28;20085;-52
2020/12/13 01:43:58;;;;;;;50.97;30.67;;;;;;;0.59;83.96;95250.63;5024271;28;20057;-53
2020/12/13 01:46:28;;;;;;;71.78;32.83;;;;;;;0.58;83.98;95256.84;5023342;28;20413;-54
2020/12/13 01:49:06;;;;;;;62.05;31.90;;;;;;;0.60;83.45;95257.44;5050509;28;20064;-54
2020/12/13 01:54:15;;;;;;;60.30;29.15;;;;;;;0.63;82.97;95261.41;5014029;28;20064;-53
2020/12/13 01:56:48;;;;;;;42.50;24.83;;;;;;;0.58;82.78;95255.03;5023466;28;20058;-55
2020/12/13 01:59:20;;;;;;;37.08;22.58;;;;;;;0.54;82.34;95253.06;5030561;28;20053;-54
2020/12/13 02:01:50;;;;;;;31.17;20.38;;;;;;;0.55;83.07;95257.25;5017546;28;20505;-53
2020/12/13 02:04:22;;;;;;;33.50;20.48;;;;;;;0.49;82.67;95248.50;5050151;28;20060;-53
2020/12/13 02:06:54;;;;;;;34.80;22.55;;;;;;;0.48;83.01;95246.91;5055214;28;20046;-54
2020/12/13 02:09:23;;;;;;;32.80;20.58;;;;;;;0.52;82.67;95250.69;5017391;28;20053;-53
2020/12/13 02:11:53;;;;;;;42.13;21.05;;;;;;;0.56;82.77;95251.84;5017996;28;20053;-53
2020/12/13 02:14:21;;;;;;;42.55;25.92;;;;;;;0.59;82.73;95256.63;5022065;28;20058;-54
2020/12/13 02:16:49;;;;;;;47.90;25.33;;;;;;;0.58;82.76;95252.44;5026588;28;20053;-52
2020/12/13 02:19:16;;;;;;;46.08;28.10;;;;;;;0.56;82.44;95249.25;5018547;28;20049;-54
2020/12/13 02:21:44;;;;;;;50.00;28.00;;;;;;;0.49;82.83;95251.09;5025054;28;20563;-53
2020/12/13 02:24:12;;;;;;;49.78;27.25;;;;;;;0.48;83.47;95256.50;5010107;28;20053;-52
2020/12/13 02:26:44;;;;;;;57.80;29.63;;;;;;;0.49;83.01;95258.88;5021320;28;20080;-53
2020/12/13 02:29:12;;;;;;;67.07;32.42;;;;;;;0.46;82.86;95259.28;5017788;28;20049;-53
2020/12/13 02:31:40;;;;;;;57.33;29.27;;;;;;;0.44;83.47;95251.72;5046673;28;20053;-54
2020/12/13 02:34:07;;;;;;;55.05;29.13;;;;;;;0.47;83.92;95254.91;5018302;28;20056;-54
2020/12/13 02:36:36;;;;;;;49.88;29.25;;;;;;;0.46;83.46;95256.69;5014911;28;20045;-54
2020/12/13 02:39:05;;;;;;;55.08;26.02;;;;;;;0.48;83.77;95261.69;5067545;28;20053;-54
2020/12/13 02:41:33;;;;;;;69.57;33.13;;;;;;;0.35;83.68;95257.34;5048277;28;20053;-55
2020/12/13 02:44:00;;;;;;;50.38;28.05;;;;;;;0.30;84.12;95260.56;5020958;28;20064;-53
2020/12/13 02:46:27;;;;;;;54.00;27.30;;;;;;;0.29;84.51;95254.59;5047941;28;20049;-53
2020/12/13 02:48:55;;;;;;;60.90;28.45;;;;;;;0.20;84.38;95261.00;5033181;28;20046;-52
2020/12/13 02:51:22;;;;;;;48.70;23.70;;;;;;;0.22;84.37;95256.41;5003459;28;20793;-54
2020/12/13 02:53:49;;;;;;;62.40;29.50;;;;;;;0.24;83.80;95257.00;5001025;28;20489;-54
2020/12/13 02:56:17;;;;;;;54.22;29.20;;;;;;;0.19;84.30;95261.22;4994607;28;20057;-56
2020/12/13 02:58:43;;;;;;;51.00;25.75;;;;;;;0.26;84.05;95260.19;5019025;28;20053;-52
2020/12/13 03:01:11;;;;;;;47.10;26.08;;;;;;;0.33;84.43;95259.34;5012645;28;20049;-56
2020/12/13 03:03:38;;;;;;;51.40;24.60;;;;;;;0.41;84.07;95261.72;5019207;28;20067;-53
2020/12/13 03:06:05;;;;;;;40.40;24.52;;;;;;;0.42;83.44;95258.13;5011470;28;20045;-53
2020/12/13 03:08:32;;;;;;;54.42;27.70;;;;;;;0.32;82.98;95257.75;5021974;28;20068;-53
2020/12/13 03:10:59;;;;;;;56.33;30.80;;;;;;;0.22;83.81;95258.22;5005698;28;20417;-53
2020/12/13 03:13:26;;;;;;;46.13;26.58;;;;;;;0.26;83.87;95264.56;5050410;28;20053;-54
2020/12/13 03:15:54;;;;;;;44.28;25.00;;;;;;;0.35;83.42;95263.34;5046179;28;20049;-55
2020/12/13 03:18:21;;;;;;;43.83;23.77;;;;;;;0.41;83.41;95272.09;4988658;28;20052;-54
2020/12/13 03:20:48;;;;;;;35.80;21.15;;;;;;;0.41;82.90;95275.47;4996927;28;20282;-54
2020/12/13 03:23:16;;;;;;;65.35;27.88;;;;;;;0.40;82.58;95273.09;5068197;28;20060;-53
2020/12/13 03:25:43;;;;;;;58.38;25.55;;;;;;;0.30;83.34;95276.13;5052136;28;20057;-53
2020/12/13 03:28:10;;;;;;;46.45;25.25;;;;;;;0.25;83.32;95278.53;5012059;28;20063;-53
2020/12/13 03:30:37;;;;;;;41.00;23.65;;;;;;;0.30;83.33;95279.53;5031561;28;20053;-53
2020/12/13 03:33:05;;;;;;;32.58;20.52;;;;;;;0.30;83.24;95281.31;5048563;28;20068;-55
2020/12/13 03:35:32;;;;;;;36.65;21.65;;;;;;;0.24;82.89;95288.13;5050445;28;20050;-55
2020/12/13 03:37:59;;;;;;;35.22;20.95;;;;;;;0.20;83.46;95291.34;5020529;28;20045;-53
2020/12/13 03:40:26;;;;;;;44.90;24.75;;;;;;;0.15;83.15;95300.53;5020149;28;20056;-53
2020/12/13 03:42:53;;;;;;;34.05;20.77;;;;;;;0.12;83.85;95305.31;5017811;28;20045;-54
2020/12/13 03:45:20;;;;;;;34.63;21.98;;;;;;;0.04;83.96;95292.59;5009965;28;20084;-54
2020/12/13 03:47:50;;;;;;;45.20;23.58;;;;;;;0.15;83.22;95308.31;5048776;28;20058;-54
2020/12/13 03:50:17;;;;;;;43.53;24.13;;;;;;;0.09;83.76;95305.72;5014346;28;20416;-54
2020/12/13 03:52:45;;;;;;;38.47;22.58;;;;;;;0.03;84.10;95316.94;5045441;28;20444;-55
2020/12/13 03:55:12;;;;;;;36.88;22.00;;;;;;;-0.03;84.67;95308.94;5028359;28;20049;-55
2020/12/13 03:57:39;;;;;;;39.70;24.02;;;;;;;0.01;84.73;95318.94;5018949;28;20048;-54
2020/12/13 04:00:07;;;;;;;32.92;20.70;;;;;;;0.08;84.59;95310.13;5020051;28;20045;-55
2020/12/13 04:02:34;;;;;;;42.92;26.00;;;;;;;0.18;84.29;95314.09;5013088;28;20065;-53
2020/12/13 04:05:01;;;;;;;50.85;25.85;;;;;;;0.22;83.45;95316.06;5010667;28;20054;-53
2020/12/13 04:07:31;;;;;;;50.17;26.65;;;;;;;0.21;83.06;95311.88;5024936;28;20421;-53
2020/12/13 04:09:58;;;;;;;61.15;29.27;;;;;;;0.19;83.42;95311.28;5023195;28;20410;-54
2020/12/13 04:12:25;;;;;;;53.85;27.83;;;;;;;0.18;83.94;95314.91;5018462;28;20064;-58
2020/12/13 04:14:52;;;;;;;75.20;34.53;;;;;;;0.18;83.24;95312.31;5032707;28;20048;-53
2020/12/13 04:17:20;;;;;;;59.72;30.20;;;;;;;0.17;83.76;95312.50;5032240;28;20057;-52
2020/12/13 04:19:47;;;;;;;61.90;32.25;;;;;;;0.18;83.59;95320.09;5029869;28;20057;-54
2020/12/13 04:22:14;;;;;;;47.70;27.33;;;;;;;0.14;83.78;95319.69;5048175;28;20061;-55
2020/12/13 04:24:41;;;;;;;50.88;29.17;;;;;;;0.17;83.89;95325.47;5022909;28;20056;-53
2020/12/13 04:27:08;;;;;;;55.45;29.88;;;;;;;0.13;83.90;95318.06;5011183;28;20049;-53
2020/12/13 04:29:36;;;;;;;58.97;30.63;;;;;;;0.10;84.11;95320.28;5014363;28;20053;-53
2020/12/13 04:32:03;;;;;;;56.58;32.35;;;;;;;0.06;83.91;95327.69;5028613;28;20053;-53
2020/12/13 04:34:30;;;;;;;65.30;33.78;;;;;;;0.06;83.69;95326.91;5032360;28;20498;-54
2020/12/13 04:37:00;;;;;;;57.67;32.08;;;;;;;0.03;83.27;95332.50;5030087;28;20064;-54
2020/12/13 04:39:28;;;;;;;64.35;33.70;;;;;;;-0.07;83.32;95332.91;5053717;28;20057;-54
2020/12/13 04:41:56;;;;;;;70.30;34.90;;;;;;;-0.13;84.11;95333.72;5028439;28;20049;-53
2020/12/13 04:44:23;;;;;;;74.85;39.35;;;;;;;-0.10;84.46;95333.28;5019358;28;20049;-53
2020/12/13 04:46:53;;;;;;;80.05;37.03;;;;;;;-0.14;84.27;95332.13;5029991;28;20048;-53
2020/12/13 04:49:24;;;;;;;98.47;39.17;;;;;;;-0.18;84.27;95336.91;5020755;28;20057;-53
2020/12/13 04:51:51;;;;;;;92.70;37.00;;;;;;;-0.26;84.39;95337.94;5018139;28;20501;-53
2020/12/13 04:54:21;;;;;;;66.50;34.25;;;;;;;-0.27;84.84;95340.72;5035715;28;20061;-53
2020/12/13 04:56:53;;;;;;;84.07;37.22;;;;;;;-0.35;84.69;95346.88;5038497;28;20227;-54
2020/12/13 04:59:21;;;;;;;69.82;39.67;;;;;;;-0.43;84.91;95344.50;5023106;28;20061;-54
2020/12/13 05:01:48;;;;;;;78.05;36.05;;;;;;;-0.48;85.33;95342.53;5049812;28;20049;-54
2020/12/13 05:04:16;;;;;;;80.38;37.85;;;;;;;-0.44;84.73;95354.09;5019668;28;20057;-54
2020/12/13 05:06:45;;;;;;;72.60;37.05;;;;;;;-0.42;85.24;95357.25;5053190;28;20045;-53
2020/12/13 05:09:14;;;;;;;96.25;38.80;;;;;;;-0.48;84.55;95356.25;5021835;28;20501;-54
2020/12/13 05:11:44;;;;;;;75.53;37.35;;;;;;;-0.49;84.71;95361.66;5018931;28;20064;-52
2020/12/13 05:14:12;;;;;;;121.10;42.00;;;;;;;-0.53;84.68;95376.81;5022195;28;20049;-53
2020/12/13 05:16:39;;;;;;;73.22;35.38;;;;;;;-0.54;85.44;95369.22;5010979;28;20050;-54
2020/12/13 05:19:07;;;;;;;76.72;34.92;;;;;;;-0.51;85.02;95374.00;5046255;28;20061;-53
2020/12/13 05:21:36;;;;;;;68.75;32.70;;;;;;;-0.49;85.86;95374.59;5052954;28;20517;-53
2020/12/13 05:24:06;;;;;;;83.32;35.65;;;;;;;-0.48;85.32;95373.63;5015618;28;20061;-53
2020/12/13 05:26:33;;;;;;;95.28;38.45;;;;;;;-0.47;85.60;95375.22;5054021;28;20037;-52
2020/12/13 05:29:05;;;;;;;87.25;39.00;;;;;;;-0.47;85.71;95375.22;5011049;28;20096;-53
2020/12/13 05:31:40;;;;;;;114.35;45.03;;;;;;;-0.52;85.36;95375.00;5021151;28;20065;-53
2020/12/13 05:34:15;;;;;;;116.38;40.90;;;;;;;-0.53;86.32;95370.81;5022253;28;20057;-53
2020/12/13 05:36:43;;;;;;;79.13;38.25;;;;;;;-0.48;86.34;95376.22;5001423;28;20583;-55
2020/12/13 05:39:11;;;;;;;114.75;41.35;;;;;;;-0.50;86.35;95381.59;5030251;28;20045;-53
2020/12/13 05:41:39;;;;;;;122.35;45.88;;;;;;;-0.54;85.75;95377.81;5068836;28;20049;-53
2020/12/13 05:52:30;;;;;;;64.57;34.45;;;;;;;-0.31;84.64;95397.34;5021729;28;20049;-53
2020/12/13 05:54:58;;;;;;;87.68;42.13;;;;;;;-0.36;85.08;95389.34;5022226;28;20050;-54
2020/12/13 05:57:27;;;;;;;63.30;38.55;;;;;;;-0.36;85.59;95391.94;5012057;28;20409;-52
2020/12/13 05:59:57;;;;;;;57.33;31.58;;;;;;;-0.31;85.52;95398.13;5027026;28;20484;-53
2020/12/13 06:02:29;;;;;;;68.20;34.15;;;;;;;-0.35;84.99;95378.00;5051024;28;20052;-53
2020/12/13 06:05:02;;;;;;;63.97;33.90;;;;;;;-0.27;85.02;95392.53;5030747;28;20062;-53
2020/12/13 06:07:35;;;;;;;64.43;34.15;;;;;;;-0.23;84.86;95393.75;5028225;28;20432;-54
2020/12/13 06:10:05;;;;;;;63.28;31.33;;;;;;;-0.24;84.14;95395.53;5024362;28;20061;-53
2020/12/13 06:12:33;;;;;;;70.30;33.83;;;;;;;-0.25;84.27;95393.16;5012543;28;20045;-57
2020/12/13 06:15:01;;;;;;;59.40;31.95;;;;;;;-0.23;84.19;95393.75;5053336;28;20065;-53
2020/12/13 06:17:29;;;;;;;72.63;33.42;;;;;;;-0.27;84.44;95400.31;5032323;28;20399;-56
2020/12/13 06:19:57;;;;;;;56.92;30.35;;;;;;;-0.24;84.76;95399.94;5054200;28;20433;-54
2020/12/13 06:22:24;;;;;;;66.90;32.50;;;;;;;-0.21;84.08;95409.91;5018700;28;20053;-54
2020/12/13 06:24:52;;;;;;;145.95;45.38;;;;;;;-0.18;83.57;95399.94;5018518;28;20068;-53
2020/12/13 06:27:20;;;;;;;83.10;36.55;;;;;;;-0.25;84.58;95413.88;5009399;28;20054;-54
2020/12/13 06:29:48;;;;;;;64.70;34.53;;;;;;;-0.32;84.79;95409.50;5027961;28;20053;-55
2020/12/13 06:32:16;;;;;;;56.65;30.50;;;;;;;-0.37;85.31;95409.28;5020339;28;20053;-53
2020/12/13 06:34:44;;;;;;;51.13;29.50;;;;;;;-0.27;85.14;95410.69;5045411;28;20068;-55
2020/12/13 06:37:14;;;;;;;82.65;38.78;;;;;;;-0.23;84.58;95417.06;5026657;28;20453;-54
2020/12/13 06:39:44;;;;;;;69.55;37.45;;;;;;;-0.29;84.70;95417.84;5010399;28;20052;-53
2020/12/13 06:42:13;;;;;;;64.88;33.88;;;;;;;-0.24;84.87;95412.88;5015607;28;20068;-57
2020/12/13 06:44:43;;;;;;;73.60;36.38;;;;;;;-0.22;84.00;95418.66;5012033;28;20469;-53
2020/12/13 06:47:24;;;;;;;89.97;37.72;;;;;;;-0.26;84.14;95423.47;5018403;28;20064;-52
2020/12/13 06:49:51;;;;;;;76.43;36.30;;;;;;;-0.24;84.37;95429.22;5016012;28;20430;-53
2020/12/13 06:52:49;;;;;;;68.70;32.63;;;;;;;-0.22;84.53;95435.00;5048976;28;20545;-54
2020/12/13 06:55:17;;;;;;;73.43;34.47;;;;;;;-0.19;84.15;95433.84;5018703;28;20053;-53
2020/12/13 06:57:51;;;;;;;57.22;30.60;;;;;;;-0.18;83.99;95441.41;5032395;28;20117;-54
2020/12/13 07:00:18;;;;;;;63.65;32.85;;;;;;;-0.15;84.25;95435.00;5045315;28;20513;-53
2020/12/13 07:02:53;;;;;;;60.33;32.65;;;;;;;-0.13;83.82;95440.81;5024699;28;20052;-53
2020/12/13 07:05:20;;;;;;;71.93;33.33;;;;;;;-0.13;83.92;95438.22;5017866;28;20053;-55
2020/12/13 07:07:54;;;;;;;69.53;37.13;;;;;;;-0.18;84.18;95445.78;5023294;28;20536;-54
2020/12/13 07:10:21;;;;;;;52.58;28.70;;;;;;;-0.17;84.37;95440.41;5043370;28;20045;-53
2020/12/13 07:12:55;;;;;;;50.67;29.52;;;;;;;-0.12;83.78;95449.38;5016562;28;20247;-54
2020/12/13 07:15:31;;;;;;;59.85;28.17;;;;;;;-0.11;83.65;95449.19;5052816;28;20049;-53
2020/12/13 07:17:59;;;;;;;53.17;27.27;;;;;;;-0.17;83.91;95447.38;5034581;28;20539;-54
2020/12/13 07:20:27;;;;;;;67.57;30.90;;;;;;;-0.14;83.72;95461.75;5012358;28;20057;-56
2020/12/13 07:22:58;;;;;;;61.45;30.13;;;;;;;-0.12;84.09;95449.38;5047659;28;20052;-54
2020/12/13 07:25:26;;;;;;;67.57;33.03;;;;;;;-0.14;84.00;95456.56;5021852;28;20053;-53
2020/12/13 07:27:54;;;;;;;65.28;34.00;;;;;;;-0.16;83.62;95459.34;5017399;28;20828;-55
2020/12/13 07:30:21;;;;;;;56.60;31.98;;;;;;;-0.20;83.72;95458.94;5044938;28;20049;-56
2020/12/13 07:32:50;;;;;;;63.17;32.55;;;;;;;-0.23;83.38;95459.34;5018305;28;20049;-53
2020/12/13 07:35:17;;;;;;;61.00;30.48;;;;;;;-0.27;83.56;95465.13;5049293;28;20069;-54
2020/12/13 07:37:44;;;;;;;55.60;31.48;;;;;;;-0.33;83.45;95464.13;5019693;28;20399;-53
2020/12/13 07:40:13;;;;;;;56.42;31.70;;;;;;;-0.33;83.18;95467.53;5036766;28;20050;-54
2020/12/13 07:42:58;;;;;;;54.58;31.10;;;;;;;-0.36;83.94;95475.69;5029475;28;20065;-54
2020/12/13 07:45:26;;;;;;;56.88;29.40;;;;;;;-0.34;83.53;95478.06;5020182;28;20063;-54
2020/12/13 07:48:03;;;;;;;56.05;31.00;;;;;;;-0.34;83.85;95478.88;5013005;28;20053;-54
2020/12/13 07:50:44;;;;;;;57.65;32.65;;;;;;;-0.33;83.87;95483.06;5023427;28;20049;-54
2020/12/13 07:53:11;;;;;;;67.25;32.90;;;;;;;-0.26;84.14;95483.09;5002088;28;20749;-54
2020/12/13 07:55:42;;;;;;;56.97;31.90;;;;;;;-0.18;83.71;95488.06;5012420;28;20053;-54
2020/12/13 07:58:09;;;;;;;54.10;30.80;;;;;;;-0.08;83.86;95490.28;5076160;28;20045;-54
2020/12/13 08:00:36;;;;;;;55.75;30.40;;;;;;;-0.08;83.70;95492.88;5016929;28;20068;-54
2020/12/13 08:03:05;;;;;;;54.47;32.92;;;;;;;-0.04;83.07;95495.84;5022504;28;20061;-53
2020/12/13 08:05:32;;;;;;;75.53;38.63;;;;;;;-0.05;83.28;95492.44;5051944;28;20057;-54
2020/12/13 08:08:00;;;;;;;60.63;32.25;;;;;;;-0.08;83.47;95490.28;5027466;28;20045;-54
2020/12/13 08:10:28;;;;;;;63.88;31.05;;;;;;;-0.13;83.69;95494.47;5014453;28;20054;-54
2020/12/13 08:13:07;;;;;;;52.67;28.95;;;;;;;-0.15;83.57;95497.22;5023035;28;20053;-54
2020/12/13 08:15:34;;;;;;;62.03;31.73;;;;;;;-0.07;83.45;95494.47;5026242;28;20425;-54
2020/12/13 08:18:13;;;;;;;62.38;31.75;;;;;;;-0.02;83.23;95502.44;5038207;28;20057;-60
2020/12/13 08:20:45;;;;;;;46.97;26.83;;;;;;;0.04;83.46;95503.44;5050560;28;20080;-55
2020/12/13 08:23:14;;;;;;;64.03;29.80;;;;;;;0.07;82.69;95500.44;5055258;28;20053;-53
2020/12/13 08:25:43;;;;;;;54.13;29.10;;;;;;;0.08;83.23;95501.22;5002854;28;20489;-56
2020/12/13 08:28:14;;;;;;;68.63;31.48;;;;;;;0.06;83.47;95498.84;5016587;28;20378;-53
2020/12/13 08:30:42;;;;;;;43.47;26.38;;;;;;;0.07;83.79;95503.03;5046583;28;20062;-54
2020/12/13 08:33:10;;;;;;;49.80;27.45;;;;;;;0.14;82.86;95505.63;5023743;28;20053;-54
2020/12/13 08:35:37;;;;;;;47.60;25.67;;;;;;;0.25;82.71;95509.41;4997829;28;20068;-54
2020/12/13 08:38:05;;;;;;;47.53;28.00;;;;;;;0.30;82.79;95504.41;5019810;28;20513;-53
2020/12/13 08:40:45;;;;;;;38.00;23.40;;;;;;;0.28;81.62;95506.41;5057513;28;20057;-54
2020/12/13 08:43:20;;;;;;;45.72;25.30;;;;;;;0.24;81.32;95510.44;5048194;28;20045;-53
2020/12/13 08:45:55;;;;;;;47.25;24.77;;;;;;;0.22;81.30;95508.00;5055772;28;20045;-55
2020/12/13 08:48:27;;;;;;;35.60;22.30;;;;;;;0.27;81.84;95516.00;5024130;28;20050;-54
2020/12/13 08:51:09;;;;;;;43.45;24.70;;;;;;;0.30;81.40;95518.22;5005323;28;20068;-53
2020/12/13 08:53:37;;;;;;;44.85;26.25;;;;;;;0.27;81.92;95516.00;5024434;28;20061;-55
2020/12/13 08:56:07;;;;;;;43.70;25.25;;;;;;;0.33;82.05;95526.56;5016455;28;20056;-54
2020/12/13 08:59:01;;;;;;;45.75;25.88;;;;;;;0.36;81.87;95523.56;5015839;28;20394;-56
2020/12/13 09:01:36;;;;;;;38.03;23.92;;;;;;;0.41;81.72;95527.16;5020960;28;20049;-53
2020/12/13 09:04:23;;;;;;;36.47;23.88;;;;;;;0.43;81.27;95525.19;5056725;28;20046;-55
2020/12/13 09:06:55;;;;;;;39.58;23.80;;;;;;;0.43;80.97;95516.59;5022773;28;20045;-54
2020/12/13 09:09:27;;;;;;;39.25;22.52;;;;;;;0.44;80.85;95523.38;5064457;28;20042;-57
2020/12/13 09:11:56;;;;;;;43.97;25.67;;;;;;;0.43;81.49;95526.97;5025069;28;20056;-57
2020/12/13 09:14:27;;;;;;;34.97;22.23;;;;;;;0.48;81.73;95526.38;5038223;28;20060;-63
2020/12/13 09:17:00;;;;;;;42.30;24.52;;;;;;;0.58;81.19;95521.56;5025798;28;20069;-54
2020/12/13 09:19:29;;;;;;;32.53;20.58;;;;;;;0.60;80.95;95522.94;5050105;28;20052;-56
2020/12/13 09:22:00;;;;;;;36.35;20.45;;;;;;;0.71;80.82;95528.53;5018363;28;20064;-60
2020/12/13 09:24:34;;;;;;;35.45;21.88;;;;;;;0.78;80.43;95524.13;5012715;28;20064;-58
2020/12/13 09:27:14;;;;;;;38.15;23.77;;;;;;;0.76;80.06;95528.72;5022807;28;20060;-54
2020/12/13 09:29:43;;;;;;;33.72;20.42;;;;;;;0.73;79.84;95514.38;5020308;28;20399;-53
2020/12/13 09:32:10;;;;;;;40.15;23.15;;;;;;;0.68;80.07;95516.75;5017124;28;20053;-54
2020/12/13 09:34:38;;;;;;;33.92;21.75;;;;;;;0.64;80.87;95525.16;5015890;28;20682;-55
2020/12/13 09:37:13;;;;;;;28.92;21.10;;;;;;;0.71;80.30;95521.56;5023898;28;20057;-54
2020/12/13 09:39:41;;;;;;;30.60;18.48;;;;;;;0.75;80.12;95521.94;5015742;28;20088;-54
2020/12/13 09:42:10;;;;;;;34.38;21.58;;;;;;;0.78;79.78;95526.72;5041508;28;20061;-55
2020/12/13 09:44:37;;;;;;;36.30;22.55;;;;;;;0.74;80.29;95521.13;5031744;28;20053;-54
2020/12/13 09:47:05;;;;;;;33.22;20.88;;;;;;;0.85;79.97;95519.72;5023869;28;20049;-53
2020/12/13 09:49:33;;;;;;;36.97;23.65;;;;;;;0.90;79.84;95522.50;5037160;28;20041;-54
2020/12/13 09:52:03;;;;;;;39.70;23.80;;;;;;;0.95;79.23;95521.88;4992402;28;20042;-53
2020/12/13 09:54:35;;;;;;;35.03;22.73;;;;;;;0.97;79.12;95522.50;5010481;28;20081;-53
2020/12/13 09:57:02;;;;;;;37.95;22.05;;;;;;;1.06;79.62;95521.25;5026899;28;20052;-54
2020/12/13 09:59:32;;;;;;;39.22;26.38;;;;;;;1.13;78.93;95523.81;5058020;28;20072;-54
2020/12/13 10:02:00;;;;;;;41.15;26.33;;;;;;;1.05;78.59;95526.63;5020970;28;20426;-53
2020/12/13 10:04:27;;;;;;;39.63;25.02;;;;;;;0.99;78.97;95517.84;5048078;28;20309;-53
2020/12/13 10:07:16;;;;;;;39.22;26.52;;;;;;;0.97;78.77;95519.06;5042497;28;20250;-57
2020/12/13 10:09:46;;;;;;;48.40;28.58;;;;;;;0.98;79.06;95537.06;5035627;28;20049;-54
2020/12/13 10:12:13;;;;;;;45.33;28.88;;;;;;;0.96;79.31;95527.88;5040067;28;20556;-53
2020/12/13 10:14:40;;;;;;;52.28;30.20;;;;;;;0.89;79.70;95522.69;5014372;28;20054;-53
2020/12/13 10:17:08;;;;;;;61.47;32.00;;;;;;;0.88;79.56;95526.28;5003267;28;20045;-54
2020/12/13 10:19:36;;;;;;;51.97;30.02;;;;;;;0.81;80.38;95518.50;5039290;28;20051;-54
2020/12/13 10:22:03;;;;;;;48.20;27.80;;;;;;;0.81;80.88;95523.69;5010932;28;20057;-55
2020/12/13 10:24:30;;;;;;;56.38;29.30;;;;;;;0.79;80.68;95512.75;5009084;28;20045;-54
2020/12/13 10:27:01;;;;;;;47.53;29.17;;;;;;;0.79;80.61;95522.31;5045376;28;20062;-53
2020/12/13 10:29:28;;;;;;;48.83;26.60;;;;;;;0.82;80.18;95521.91;5044359;28;20049;-65
2020/12/13 10:31:56;;;;;;;51.25;30.98;;;;;;;0.81;80.04;95523.69;5049641;28;20617;-53
2020/12/13 10:34:26;;;;;;;50.38;29.88;;;;;;;0.79;80.39;95512.75;5001621;28;20060;-55
2020/12/13 10:36:54;;;;;;;47.50;28.58;;;;;;;0.79;80.04;95515.34;5012188;28;20045;-53
2020/12/13 10:39:22;;;;;;;52.78;29.17;;;;;;;0.80;80.59;95519.50;5014701;28;20413;-55
2020/12/13 10:41:52;;;;;;;51.55;30.48;;;;;;;0.84;81.03;95522.53;5025506;28;20057;-54
2020/12/13 10:44:20;;;;;;;52.35;30.20;;;;;;;0.85;80.25;95511.13;5031484;28;20055;-54
2020/12/13 10:46:47;;;;;;;52.50;28.45;;;;;;;0.88;80.18;95508.09;5019727;28;20053;-54
2020/12/13 10:49:15;;;;;;;54.17;32.35;;;;;;;0.88;80.04;95506.31;5034478;28;20053;-55
2020/12/13 10:51:43;;;;;;;57.13;31.38;;;;;;;0.88;79.94;95506.31;5003359;28;20068;-54
2020/12/13 10:54:10;;;;;;;47.00;27.20;;;;;;;0.89;80.22;95517.50;5002552;28;20073;-54
2020/12/13 10:56:37;;;;;;;48.88;26.45;;;;;;;0.94;80.36;95509.91;5040608;28;20072;-54
2020/12/13 10:59:04;;;;;;;58.13;32.53;;;;;;;0.96;79.96;95514.88;5007405;28;21045;-55
2020/12/13 11:01:32;;;;;;;51.50;31.75;;;;;;;0.95;79.76;95510.69;5024405;28;20053;-56
2020/12/13 11:03:59;;;;;;;58.00;34.75;;;;;;;0.95;79.43;95508.09;5011070;28;20141;-54
2020/12/13 11:06:27;;;;;;;64.68;38.60;;;;;;;0.85;79.69;95513.72;5003811;28;20045;-54
2020/12/13 11:09:02;;;;;;;55.70;34.40;;;;;;;0.83;80.11;95513.91;5006525;28;20045;-59
2020/12/13 11:11:29;;;;;;;48.97;30.05;;;;;;;0.94;80.11;95511.69;5013060;28;20049;-55
2020/12/13 11:13:55;;;;;;;49.58;30.88;;;;;;;0.96;79.89;95504.50;4979132;28;20053;-55
2020/12/13 11:16:23;;;;;;;50.45;27.15;;;;;;;1.02;79.55;95501.09;4992878;28;20076;-55
2020/12/13 11:18:51;;;;;;;49.65;29.23;;;;;;;1.03;79.33;95498.28;5041958;28;20265;-53
2020/12/13 11:21:18;;;;;;;48.35;26.77;;;;;;;1.10;79.30;95508.66;5001755;28;20061;-54
2020/12/13 11:23:45;;;;;;;50.20;30.02;;;;;;;1.13;79.43;95499.63;5034749;28;20402;-53
2020/12/13 11:26:12;;;;;;;48.95;28.23;;;;;;;1.09;79.38;95501.84;5018481;28;20049;-53
2020/12/13 11:28:39;;;;;;;46.75;30.45;;;;;;;1.07;79.31;95499.47;5011334;28;20049;-53
2020/12/13 11:31:06;;;;;;;51.13;28.50;;;;;;;1.07;78.55;95499.47;5002458;28;20501;-55
2020/12/13 11:33:33;;;;;;;48.05;29.75;;;;;;;1.09;78.49;95501.84;5007773;28;20046;-53
2020/12/13 11:36:00;;;;;;;49.70;31.15;;;;;;;1.10;78.93;95498.25;5008226;28;20518;-56
2020/12/13 11:38:28;;;;;;;56.08;31.50;;;;;;;1.08;78.94;95500.25;5017067;28;20045;-56
2020/12/13 11:40:57;;;;;;;52.85;29.33;;;;;;;1.00;79.27;95503.09;5033822;28;20056;-53